Thunder radar more information blitzortung!


Radar de pluja more information rain snow radar


Visita la nostra xarxa de llocs de meteo:

Template documentation
and downloads

And another site



No particular awareness of the weather is required.    There are no Weather-warnings

Pagina Historial Weather Underground text

Diari Resum Juny 19, 2017 Unitats:  Imperial    Mètric   Tant
« Previous Dia
SegĂźent Dia »
Diari Setmana Mensual Anual Personalitzada
  Maxima: Minima: Media:
Temperatura: 89.8 °F 67.1 °F 80.8 °F
Punt de rosada: 65.7 °F 55.8 °F 61.5 °F
Humitat: 82 % 35 % 54 %
Wind Speed: 13.8 mph 0 mph 5.2 mph
RĂ fegues de vent: 13.8 mph - -
Vent:- - SSE
Pression baro: 30.1 in 30 in -
Precipitacions: 0 in    
Historical Graphs
 
 
Dades de taula per Juny 19, 2017
Temps Temperatura Punt de rosada Pression baro Vent Wind Speed RĂ fegues de vent Humitat Rainfall Rate (Hourly)
00:00 68.4 °F 61.2 °F 30 in Calm   2 mph 78 % 0 in
00:01 74.1 °F 63.3 °F 30 in NNE 2.3 mph 2.3 mph 69 % 0 in
00:10 68.2 °F 61.2 °F 30 in NNE 1 mph 1 mph 78 % 0 in
00:20 68 °F 61 °F 30 in Calm   2 mph 78 % 0 in
00:30 67.8 °F 60.3 °F 30 in NNE 1 mph 2 mph 77 % 0 in
00:40 67.6 °F 60.4 °F 30 in Calm   2 mph 78 % 0 in
00:50 67.5 °F 60.4 °F 30 in NNE 1 mph 2 mph 78 % 0 in
01:00 67.5 °F 60.4 °F 30 in NE 1 mph 1 mph 78 % 0 in
01:10 67.5 °F 60.4 °F 30 in Calm   1 mph 78 % 0 in
01:20 67.5 °F 60.4 °F 30 in Calm   1 mph 78 % 0 in
01:30 67.3 °F 60.3 °F 30 in Calm   2 mph 78 % 0 in
01:40 67.1 °F 60.1 °F 30 in NNE 1 mph 1 mph 78 % 0 in
01:50 67.3 °F 60.3 °F 30 in Calm     78 % 0 in
02:00 67.5 °F 60.4 °F 30 in Calm   2 mph 78 % 0 in
02:10 67.3 °F 60.3 °F 30 in Calm   1 mph 78 % 0 in
02:20 67.6 °F 60.4 °F 30 in SW 1 mph 2 mph 78 % 0 in
02:30 67.8 °F 60.6 °F 30 in Calm   2 mph 78 % 0 in
02:40 69.1 °F 61.9 °F 30 in SSW 1 mph 2 mph 78 % 0 in
02:50 69.3 °F 61.7 °F 30.1 in Calm   2 mph 77 % 0 in
03:00 70 °F 62.1 °F 30.1 in Calm   1 mph 76 % 0 in
03:10 71.1 °F 62.8 °F 30.1 in East 1 mph 2 mph 75 % 0 in
03:20 71.6 °F 62.4 °F 30.1 in ENE 1 mph 3 mph 73 % 0 in
03:30 71.8 °F 61.9 °F 30.1 in ENE 2 mph 3 mph 71 % 0 in
03:40 72.7 °F 62.2 °F 30.1 in ENE 2 mph 3 mph 70 % 0 in
03:50 73.2 °F 62.4 °F 30.1 in East 1 mph 3 mph 69 % 0 in
04:00 74.1 °F 62.4 °F 30.1 in ENE 3 mph 3 mph 67 % 0 in
04:10 74.1 °F 61.5 °F 30.1 in East 3 mph 3 mph 65 % 0 in
04:20 74.8 °F 61.9 °F 30.1 in East 2 mph 4 mph 64 % 0 in
04:30 75.7 °F 61.9 °F 30.1 in ENE 3 mph 4 mph 62 % 0 in
04:40 76.1 °F 61.2 °F 30.1 in ENE 2 mph 6 mph 60 % 0 in
04:50 76.3 °F 60.4 °F 30.1 in East 5 mph 5 mph 58 % 0 in
05:00 77 °F 60.6 °F 30.1 in East 3 mph 4 mph 57 % 0 in
05:10 77.5 °F 60.1 °F 30.1 in ENE 1 mph 5 mph 55 % 0 in
05:20 78.6 °F 61.2 °F 30.1 in ENE 2 mph 5 mph 55 % 0 in
05:30 80.1 °F 62.4 °F 30.1 in East 3 mph 4 mph 55 % 0 in
05:40 79.3 °F 61.2 °F 30 in ESE 3 mph 6 mph 54 % 0 in
05:50 79.9 °F 61.7 °F 30.1 in East 2 mph 6 mph 54 % 0 in
06:00 81 °F 61.7 °F 30.1 in East 2 mph 6 mph 52 % 0 in
06:10 80.6 °F 61.3 °F 30.1 in East 3 mph 5 mph 52 % 0 in
06:20 81.3 °F 61.5 °F 30.1 in ESE 3 mph 7 mph 51 % 0 in
06:30 82 °F 62.8 °F 30.1 in East 2 mph 6 mph 52 % 0 in
06:40 82 °F 62.1 °F 30.1 in East 5 mph 7 mph 51 % 0 in
06:50 82.4 °F 62.4 °F 30.1 in ESE 3 mph 6 mph 51 % 0 in
07:00 83.1 °F 63.1 °F 30.1 in ESE 6 mph 8 mph 51 % 0 in
07:10 83.7 °F 63.7 °F 30.1 in East 5 mph 5 mph 51 % 0 in
07:20 84 °F 63.3 °F 30.1 in East 6 mph 6 mph 50 % 0 in
07:30 85.5 °F 62.2 °F 30.1 in East 3 mph 10 mph 46 % 0 in
12:40 84.7 °F 62.2 °F 30.1 in ESE 8.1 mph 8.1 mph 47 % 0 in
12:41 84.7 °F 62.2 °F 30.1 in East 9.2 mph 9.2 mph 47 % 0 in
12:46 84.9 °F 63 °F 30.1 in NE 12.7 mph 12.7 mph 48 % 0 in
12:51 84.9 °F 63.7 °F 30.1 in NE 10.2 mph 10.2 mph 49 % 0 in
12:56 84.7 °F 63.5 °F 30.1 in ESE 10.4 mph 10.4 mph 49 % 0 in
13:01 84.4 °F 63.1 °F 30.1 in NE 6.9 mph 6.9 mph 49 % 0 in
13:06 84.7 °F 63.5 °F 30.1 in East 12.3 mph 12.3 mph 49 % 0 in
13:11 85.3 °F 64 °F 30.1 in East 13 mph 13 mph 49 % 0 in
13:16 84.7 °F 63.5 °F 30.1 in SSE 13.8 mph 13.8 mph 49 % 0 in
13:21 85.3 °F 64 °F 30.1 in ESE 7.8 mph 7.8 mph 49 % 0 in
13:22 85.3 °F 64 °F 30.1 in ESE 9.4 mph 9.4 mph 49 % 0 in
13:27 84.4 °F 63.1 °F 30.1 in ENE 9.7 mph 9.7 mph 49 % 0 in
13:32 84.4 °F 63.1 °F 30 in ESE 8.5 mph 8.5 mph 49 % 0 in
13:37 84.7 °F 64 °F 30 in ESE 10.7 mph 10.7 mph 50 % 0 in
13:42 85.3 °F 64.6 °F 30 in ESE 9.2 mph 9.2 mph 50 % 0 in
13:47 85.1 °F 63.9 °F 30.1 in East 7.4 mph 7.4 mph 49 % 0 in
13:52 85.1 °F 63.1 °F 30.1 in SE 8.1 mph 8.1 mph 48 % 0 in
13:57 84.9 °F 63 °F 30.1 in East 10.7 mph 10.7 mph 48 % 0 in
14:02 85.6 °F 63.7 °F 30 in NE 5.9 mph 5.9 mph 48 % 0 in
14:07 85.8 °F 63.9 °F 30 in East 8.1 mph 8.1 mph 48 % 0 in
14:12 86.2 °F 63.7 °F 30 in SSE 8.1 mph 8.1 mph 47 % 0 in
14:17 86.2 °F 63 °F 30.1 in ESE 10.4 mph 10.4 mph 46 % 0 in
14:22 85.8 °F 63.3 °F 30.1 in ESE 9.2 mph 9.2 mph 47 % 0 in
14:27 85.5 °F 63 °F 30.1 in ESE 11.5 mph 11.5 mph 47 % 0 in
14:32 84.9 °F 62.4 °F 30.1 in ESE 8.1 mph 8.1 mph 47 % 0 in
14:37 85.8 °F 63.9 °F 30.1 in ENE 10.4 mph 10.4 mph 48 % 0 in
14:42 85.6 °F 63.1 °F 30.1 in ENE 11.5 mph 11.5 mph 47 % 0 in
14:47 85.6 °F 63.7 °F 30.1 in ESE 11.8 mph 11.8 mph 48 % 0 in
14:52 85.1 °F 63.1 °F 30.1 in SSE 9.2 mph 9.2 mph 48 % 0 in
14:57 86 °F 64 °F 30.1 in ESE 8.1 mph 8.1 mph 48 % 0 in
15:02 85.8 °F 64.6 °F 30.1 in ESE 6.9 mph 6.9 mph 49 % 0 in
15:07 85.6 °F 64.2 °F 30.1 in ESE 11.5 mph 11.5 mph 49 % 0 in
15:12 85.6 °F 64.2 °F 30.1 in ESE 11.5 mph 11.5 mph 49 % 0 in
15:17 86 °F 64.6 °F 30.1 in SSE 8.1 mph 8.1 mph 49 % 0 in
15:22 85.6 °F 63.7 °F 30.1 in ESE 8.1 mph 8.1 mph 48 % 0 in
15:27 86 °F 64 °F 30.1 in ESE 10.5 mph 10.5 mph 48 % 0 in
15:32 86.4 °F 63.9 °F 30.1 in SE 8.1 mph 8.1 mph 47 % 0 in
15:37 86.2 °F 64.2 °F 30.1 in SSE 8.1 mph 8.1 mph 48 % 0 in
15:42 87.8 °F 64.4 °F 30.1 in East 5.8 mph 5.8 mph 46 % 0 in
15:47 87.8 °F 63.9 °F 30.1 in SSE 6.2 mph 6.2 mph 45 % 0 in
15:52 86.7 °F 64.8 °F 30.1 in ESE 10.4 mph 10.4 mph 48 % 0 in
15:57 86 °F 63.3 °F 30.1 in SE 11.5 mph 11.5 mph 47 % 0 in
16:02 86 °F 63.3 °F 30.1 in East 9.4 mph 9.4 mph 47 % 0 in
16:07 85.6 °F 64.2 °F 30.1 in ENE 9.2 mph 9.2 mph 49 % 0 in
16:12 86.2 °F 64.2 °F 30.1 in ESE 9.2 mph 9.2 mph 48 % 0 in
16:17 86 °F 64 °F 30.1 in ESE 10.4 mph 10.4 mph 48 % 0 in
16:22 85.6 °F 64.2 °F 30.1 in ESE 10.4 mph 10.4 mph 49 % 0 in
16:27 85.6 °F 64.2 °F 30.1 in ENE 9.2 mph 9.2 mph 49 % 0 in
16:32 85.6 °F 64.2 °F 30 in SE 11.5 mph 11.5 mph 49 % 0 in
16:37 85.8 °F 64.6 °F 30 in SE 8.1 mph 8.1 mph 49 % 0 in
16:42 86.2 °F 64.8 °F 30 in ENE 6.4 mph 6.4 mph 49 % 0 in
16:47 85.6 °F 64.9 °F 30.1 in NE 10.4 mph 10.4 mph 50 % 0 in
16:52 85.6 °F 64.9 °F 30.1 in ESE 12.7 mph 12.7 mph 50 % 0 in
16:57 86.5 °F 64.6 °F 30.1 in SE 6.9 mph 6.9 mph 48 % 0 in
17:02 87.3 °F 64.6 °F 30 in SW 10.2 mph 10.2 mph 47 % 0 in
17:07 88.3 °F 64.9 °F 30 in SE 6.9 mph 6.9 mph 46 % 0 in
17:12 87.6 °F 64.9 °F 30 in NE 6.9 mph 6.9 mph 47 % 0 in
17:17 89.1 °F 65.7 °F 30 in South 4.6 mph 4.6 mph 46 % 0 in
17:22 88.3 °F 64.9 °F 30 in ESE 7.4 mph 7.4 mph 46 % 0 in
17:27 88.5 °F 65.1 °F 30 in SE 5.8 mph 5.8 mph 46 % 0 in
17:32 88 °F 64 °F 30 in South 5.8 mph 5.8 mph 45 % 0 in
17:37 87.8 °F 64.4 °F 30 in ESE 5.8 mph 5.8 mph 46 % 0 in
17:42 87.4 °F 64.8 °F 30 in SSE 5.8 mph 5.8 mph 47 % 0 in
17:47 87.8 °F 64.4 °F 30 in SSW 5.8 mph 5.8 mph 46 % 0 in
17:52 89.2 °F 65.1 °F 30 in South 5.8 mph 5.8 mph 45 % 0 in
17:57 88.5 °F 63.1 °F 30 in SSE 4.6 mph 4.6 mph 43 % 0 in
18:02 87.6 °F 64.2 °F 30 in ESE 2.3 mph 2.3 mph 46 % 0 in
18:07 87.3 °F 64.6 °F 30 in SSW 5.8 mph 5.8 mph 47 % 0 in
18:12 88 °F 64.6 °F 30 in SSE 10.4 mph 10.4 mph 46 % 0 in
18:17 88.2 °F 64.8 °F 30 in SSW 3.5 mph 3.5 mph 46 % 0 in
18:22 88.7 °F 64 °F 30 in ESE 5.9 mph 5.9 mph 44 % 0 in
18:27 88.9 °F 62.1 °F 30 in SSW 5.8 mph 5.8 mph 41 % 0 in
18:32 89.8 °F 63 °F 30 in SW 8.1 mph 8.1 mph 41 % 0 in
18:37 88.5 °F 62.4 °F 30 in SE 8.1 mph 8.1 mph 42 % 0 in
18:42 88.9 °F 62.1 °F 30 in West 2.3 mph 2.3 mph 41 % 0 in
18:47 89.1 °F 61 °F 30 in WSW 5.8 mph 5.8 mph 39 % 0 in
18:52 89.4 °F 61.9 °F 30 in WSW 4.6 mph 4.6 mph 40 % 0 in
18:57 88.5 °F 59.7 °F 30 in WSW 5.8 mph 5.8 mph 38 % 0 in
19:02 89.1 °F 60.1 °F 30 in SW 6 mph 6 mph 38 % 0 in
19:07 88.3 °F 58.8 °F 30 in South 8.1 mph 8.1 mph 37 % 0 in
19:12 87.6 °F 58.1 °F 30 in SW 5.8 mph 5.8 mph 37 % 0 in
19:17 87.8 °F 57.6 °F 30 in SW 2.3 mph 2.3 mph 36 % 0 in
19:22 88 °F 58.5 °F 30 in SW 4.6 mph 4.6 mph 37 % 0 in
19:27 87.6 °F 57.4 °F 30 in SSE 6 mph 6 mph 36 % 0 in
19:32 86.9 °F 56.7 °F 30 in SW 5.8 mph 5.8 mph 36 % 0 in
19:37 86.9 °F 56.7 °F 30 in SSW 4.6 mph 4.6 mph 36 % 0 in
19:42 87.1 °F 56.8 °F 30 in WSW 4.6 mph 4.6 mph 36 % 0 in
19:47 86.7 °F 55.8 °F 30 in SW 8.1 mph 8.1 mph 35 % 0 in
19:52 86.2 °F 56.1 °F 30 in SW 2.3 mph 2.3 mph 36 % 0 in
19:57 86.2 °F 56.1 °F 30 in South 3.8 mph 3.8 mph 36 % 0 in
20:02 85.5 °F 56.1 °F 30 in South 6.9 mph 6.9 mph 37 % 0 in
20:07 85.3 °F 56.1 °F 30 in WSW 4.6 mph 4.6 mph 37 % 0 in
20:12 84.9 °F 55.8 °F 30 in South 4.6 mph 4.6 mph 37 % 0 in
20:17 84.4 °F 55.9 °F 30 in SW 6.9 mph 6.9 mph 38 % 0 in
20:22 84.4 °F 55.9 °F 30 in SSW 3.5 mph 3.5 mph 38 % 0 in
20:27 84 °F 56.5 °F 30 in South 7.4 mph 7.4 mph 39 % 0 in
20:32 83.8 °F 56.8 °F 30 in SW 5.4 mph 5.4 mph 40 % 0 in
20:37 83.5 °F 56.7 °F 30 in SSW 4.6 mph 4.6 mph 40 % 0 in
20:42 83.1 °F 57 °F 30 in South 4.9 mph 4.9 mph 41 % 0 in
20:47 82.8 °F 57.4 °F 30 in SW 5.8 mph 5.8 mph 42 % 0 in
20:52 82.4 °F 57 °F 30 in South 3.5 mph 3.5 mph 42 % 0 in
20:57 82 °F 56.7 °F 30 in South 8.1 mph 8.1 mph 42 % 0 in
21:02 81.9 °F 57.2 °F 30 in WSW 3.5 mph 3.5 mph 43 % 0 in
21:07 81.5 °F 56.8 °F 30 in SW 3.5 mph 3.5 mph 43 % 0 in
21:12 81.1 °F 57.2 °F 30 in SW 4.6 mph 4.6 mph 44 % 0 in
21:17 80.8 °F 56.8 °F 30 in SW 3.5 mph 3.5 mph 44 % 0 in
21:22 80.6 °F 57.4 °F 30 in SSE 3.5 mph 3.5 mph 45 % 0 in
21:27 80.2 °F 57.6 °F 30 in SW 2.3 mph 2.3 mph 46 % 0 in
21:32 79.9 °F 57.7 °F 30 in SSW 3.1 mph 3.1 mph 47 % 0 in
21:37 79.7 °F 57.7 °F 30 in West 4.6 mph 4.6 mph 47 % 0 in
21:42 79.3 °F 57.9 °F 30 in WSW 4.6 mph 4.6 mph 48 % 0 in
21:47 79.2 °F 57.7 °F 30.1 in South 3.5 mph 3.5 mph 48 % 0 in
21:52 78.6 °F 57.9 °F 30.1 in SW 3.5 mph 3.5 mph 49 % 0 in
21:57 78.3 °F 57.6 °F 30.1 in SSW 4 mph 4 mph 49 % 0 in
22:02 78.1 °F 57.9 °F 30.1 in SSW 4.6 mph 4.6 mph 50 % 0 in
22:07 77.7 °F 58.1 °F 30.1 in SSW 5.8 mph 5.8 mph 51 % 0 in
22:12 77.4 °F 58.5 °F 30.1 in SW 5.8 mph 5.8 mph 52 % 0 in
22:17 77.2 °F 58.6 °F 30 in SW 4.6 mph 4.6 mph 53 % 0 in
22:22 77 °F 58.6 °F 30 in SSW 4.6 mph 4.6 mph 53 % 0 in
22:27 76.8 °F 59.4 °F 30 in SW 3.5 mph 3.5 mph 55 % 0 in
22:32 76.6 °F 59.4 °F 30.1 in WSW 3.5 mph 3.5 mph 55 % 0 in
22:37 76.3 °F 59.4 °F 30.1 in SW 4.6 mph 4.6 mph 56 % 0 in
22:40 71.2 °F 65.1 °F 30.1 in Calm   1 mph 81 % 0 in
22:42 76.3 °F 59.4 °F 30.1 in SW 3.5 mph 3.5 mph 56 % 0 in
22:47 76.1 °F 59.7 °F 30.1 in SW 2.3 mph 2.6 mph 57 % 0 in
22:50 71.1 °F 64.9 °F 30.1 in Calm   1 mph 81 % 0 in
22:52 75.7 °F 59.9 °F 30.1 in WSW 3.5 mph 3.5 mph 58 % 0 in
22:53 75.7 °F 59.9 °F 30.1 in WSW 3.5 mph 3.5 mph 58 % 0 in
22:58 75.7 °F 59.9 °F 30.1 in WSW 2.4 mph 2.4 mph 58 % 0 in
23:00 71.1 °F 65.3 °F 30.1 in Calm     82 % 0 in
23:03 75.6 °F 60.3 °F 30.1 in SW 2.3 mph 2.3 mph 59 % 0 in
23:08 75.4 °F 60.4 °F 30.1 in SW 2.4 mph 2.4 mph 60 % 0 in
23:10 70.7 °F 64.6 °F 30 in Calm   1 mph 81 % 0 in
23:13 75.2 °F 60.8 °F 30.1 in SW 2.3 mph 2.3 mph 61 % 0 in
23:18 75 °F 61.2 °F 30.1 in SSW 2.6 mph 2.6 mph 62 % 0 in
23:20 70.5 °F 64.4 °F 30 in Calm   1 mph 81 % 0 in
23:23 75 °F 62.1 °F 30.1 in WSW 3.5 mph 3.5 mph 64 % 0 in
23:28 74.8 °F 61.9 °F 30.1 in SW 2.6 mph 2.6 mph 64 % 0 in
23:30 70.2 °F 64 °F 30 in SW 1 mph 2 mph 81 % 0 in
23:33 74.7 °F 62.1 °F 30.1 in SW 3.5 mph 3.5 mph 65 % 0 in
23:38 74.7 °F 63 °F 30.1 in SW 2.6 mph 2.6 mph 67 % 0 in
23:40 69.8 °F 63.3 °F 30 in SW 2 mph 2 mph 80 % 0 in
23:43 74.5 °F 62.8 °F 30.1 in SW 2.3 mph 2.3 mph 67 % 0 in
23:44 74.5 °F 62.8 °F 30.1 in WSW 2.4 mph 2.4 mph 67 % 0 in
23:49 74.3 °F 63.1 °F 30.1 in SW 2.3 mph 2.3 mph 68 % 0 in
23:50 69.6 °F 63.5 °F 30 in SW 1 mph 2 mph 81 % 0 in
23:54 74.3 °F 63.5 °F 30.1 in SW 2.3 mph 2.3 mph 69 % 0 in
23:59 74.1 °F 63.7 °F 30.1 in SW 1.2 mph 1.4 mph 70 % 0 in
Meteo Sesrovires
Elogis d' Weather Underground - 3.5 mb

Guio original per  Jim McMurry - jmcmurry@mwt.net Adaptat per a la plantilla per  Wim van der Kuil - Leuven-Template.eu

Trobareu la nostra informacio del temps tambe a:

Weather Underground

AWEKAS